Flight Track Log - Related Links

Times and Time Zones

All times are in EDT time to prevent confusion due to time zone crossing. See the LXJ342 flight status page for this flight to view local times or setup timezone preferences in your user account.

Time Position Orientation Groundspeed Altitude Reporting Facility
EDT Latitude Longitude Course Direction KTS km/h feet Rate Location/Type
Tue 19:37:18 34.1606 -118.4683 125° Southeast 232 430 27,000  Level Los Angeles Center
Tue 19:37:35 34.1500 -118.4500 125° Southeast 232 430 3,800 -8,146 Descending Southern California TRACON
Tue 19:39:21 34.2536 -118.4497 360° North 269 499 10,300 3,286 Climbing Los Angeles Center
Tue 19:40:23 34.3339 -118.4072 24° Northeast 318 589 13,000 2,613 Climbing Los Angeles Center
Tue 19:41:25 34.4256 -118.3553 25° Northeast 366 678 15,700 2,323 Climbing Los Angeles Center
Tue 19:42:27 34.4908 -118.2875 41° Northeast 393 727 17,800 2,274 Climbing Los Angeles Center
Tue 19:43:29 34.5778 -118.1519 52° Northeast 427 790 20,400 2,371 Climbing Los Angeles Center
Tue 19:44:31 34.6350 -118.0239 61° Northeast 437 810 22,700 1,258 Climbing Los Angeles Center
Tue 19:45:33 34.6522 -117.8703 82° East 465 861 23,000 145 Climbing Los Angeles Center
Tue 19:46:35 34.6833 -117.6919 78° East 461 855 23,000  Level Los Angeles Center
Tue 19:47:37 34.7189 -117.5436 74° East 462 856 23,000  Level Los Angeles Center
Tue 19:48:38 34.7564 -117.3967 73° East 462 856 23,000  Level Los Angeles Center
Tue 19:49:40 34.7925 -117.2500 73° East 460 851 23,000  Level Los Angeles Center
Tue 19:50:42 34.8314 -117.1039 72° East 460 851 23,000  Level Los Angeles Center
Tue 19:51:44 34.8747 -116.9281 73° East 458 848 23,000  Level Los Angeles Center
Tue 19:52:47 34.9106 -116.7839 73° East 450 834 23,000  Level Los Angeles Center
Tue 19:53:48 34.9422 -116.6531 74° East 409 758 23,000  Level Los Angeles Center
Tue 19:54:50 34.9911 -116.5408 62° Northeast 397 735 23,000  Level Los Angeles Center
Tue 19:55:52 35.0678 -116.4433 46° Northeast 398 737 23,000 -97 Level Los Angeles Center
Tue 19:56:54 35.1631 -116.3239 46° Northeast 408 756 22,800 -823 Descending Los Angeles Center
Tue 19:57:56 35.2419 -116.2256 45° Northeast 407 753 21,300 -1,415 Descending Los Angeles Center
Tue 19:58:57 35.3175 -116.1294 46° Northeast 396 734 19,900 -1,415 Descending Los Angeles Center
Tue 19:59:59 35.3931 -116.0347 46° Northeast 391 724 18,400 -1,392 Descending Los Angeles Center
Tue 20:01:02 35.4667 -115.9394 46° Northeast 386 715 17,000 -1,452 Descending Los Angeles Center
Tue 20:02:03 35.5514 -115.8336 45° Northeast 384 711 15,400 -1,415 Descending Los Angeles Center
Tue 20:03:05 35.6214 -115.7467 45° Northeast 367 679 14,100 -1,161 Descending Los Angeles Center
Tue 20:04:07 35.6875 -115.6625 46° Northeast 349 647 13,000 -532 Descending Los Angeles Center
Tue 20:05:09 35.7658 -115.5772 41° Northeast 337 624 13,000  Level Los Angeles Center
Tue 20:06:11 35.8581 -115.5681 North 335 621 13,000  Level Los Angeles Center
Tue 20:07:13 35.9553 -115.5547 North 334 618 13,000 -512 Level Los Angeles Center
Tue 20:08:20 36.0056 -115.4517 59° Northeast 320 592 11,900 -1,016 Descending Los Angeles Center
Tue 20:09:17 36.0306 -115.3658 70° East 310 575 10,900 -1,068 Descending Los Angeles Center
Tue 20:10:18 36.0222 -115.2703 96° East 289 536 9,800 -1,095 Descending Los Angeles Center
Tue 20:11:23 36.0136 -115.1594 95° East 279 517 8,600 -857 Descending Los Angeles Center
Tue 20:12:24 36.0094 -115.0706 93° East 247 457 8,000 -689 Descending Los Angeles Center
Tue 20:13:25 36.0392 -115.0181 55° Northeast 224 415 7,200 -893 Descending Los Angeles Center
Tue 20:14:25 36.0994 -114.9875 22° Northeast 224 415 6,200 -837 Descending Los Angeles Center
Tue 20:14:51 36.1075 -114.9819 29° Northeast 225 417 6,000 -1,180 Descending Los Angeles Center
Tue 20:15:26 36.1442 -115.0047 333° Northwest 186 344 5,000 -1,355 Descending Los Angeles Center
Tue 20:15:53 36.1492 -115.0239 288° West 199 369 4,600 -984 Descending Los Angeles Center
Tue 20:16:27 36.1531 -115.0656 277° West 178 330 4,000 -730 Descending Los Angeles Center
Tue 20:17:07 36.1556 -115.0847 279° West 185 343 3,700 -885 Descending Los Angeles Center
Tue 20:17:28 36.1503 -115.1225 260° West 146 270 3,100 -871 Descending Los Angeles Center
Tue 20:18:09 36.1361 -115.1331 211° Southwest 156 290 2,800 -492 Descending Los Angeles Center
Tue 20:18:29 36.1189 -115.1461 211° Southwest 135 249 2,600 -484 Descending Los Angeles Center
Tue 20:19:11 36.1028 -115.1533 200° South 139 257 2,300 -429 Descending Los Angeles Center
Tue 20:21:00 36.0801 -115.1523 270° West  Level Estimated

Login

Don't have an account? Register now (free) for customized features, flight alerts, and more!